Time;durP1;ratioP1;P1;durP2;ratioP2;P2;SDS_P1;SDS_P2;PMS_P1;PMS_P2;Temp;Humidity;BMP_temperature;BMP_pressure;BME280_temperature;BME280_humidity;BME280_pressure;Samples;Min_cycle;Max_cycle;Signal;HPM_P1;HPM_P2
2023/12/01 00:04:40;;;;;;;4.70;3.38;;;;;;;;;;10309298;28;20049;-57
2023/12/01 00:09:41;;;;;;;4.97;3.20;;;;;;;;;;10309329;28;20293;-57
2023/12/01 00:14:42;;;;;;;3.25;2.88;;;;;;;;;;10315654;28;20046;-57
2023/12/01 00:19:43;;;;;;;7.25;3.10;;;;;;;;;;10314866;28;20093;-57
2023/12/01 00:24:43;;;;;;;3.55;2.72;;;;;;;;;;10303279;28;20018;-56
2023/12/01 00:29:44;;;;;;;3.55;3.25;;;;;;;;;;10302253;28;20142;-56
2023/12/01 00:34:44;;;;;;;7.13;3.13;;;;;;;;;;10294293;28;20034;-57
2023/12/01 00:39:45;;;;;;;3.05;2.75;;;;;;;;;;10306855;28;20030;-56
2023/12/01 00:44:45;;;;;;;3.47;2.80;;;;;;;;;;10295367;28;20019;-56
2023/12/01 00:49:46;;;;;;;2.60;2.40;;;;;;;;;;10297051;28;20038;-57
2023/12/01 00:54:47;;;;;;;3.08;2.50;;;;;;;;;;10294822;28;20843;-57
2023/12/01 00:59:47;;;;;;;4.05;2.80;;;;;;;;;;10311934;28;20034;-57
2023/12/01 01:04:48;;;;;;;3.33;2.70;;;;;;;;;;10300633;28;20091;-57
2023/12/01 01:09:48;;;;;;;3.58;2.90;;;;;;;;;;10293728;28;20038;-56
2023/12/01 01:14:49;;;;;;;3.85;2.88;;;;;;;;;;10294623;28;20410;-56
2023/12/01 01:19:50;;;;;;;5.82;2.42;;;;;;;;;;10293667;28;20023;-56
2023/12/01 01:24:51;;;;;;;3.25;2.60;;;;;;;;;;10295446;28;20084;-56
2023/12/01 01:29:51;;;;;;;3.60;2.78;;;;;;;;;;10298122;28;20109;-57
2023/12/01 01:34:52;;;;;;;3.40;2.67;;;;;;;;;;10294159;28;20034;-56
2023/12/01 01:39:53;;;;;;;3.30;2.67;;;;;;;;;;10298287;28;20049;-56
2023/12/01 01:44:53;;;;;;;2.88;2.53;;;;;;;;;;10292451;28;20026;-56
2023/12/01 01:49:54;;;;;;;4.93;2.50;;;;;;;;;;10292343;28;20027;-56
2023/12/01 01:54:56;;;;;;;3.50;2.50;;;;;;;;;;10302486;28;20037;-55
2023/12/01 01:59:56;;;;;;;3.65;2.53;;;;;;;;;;10315987;28;20478;-55
2023/12/01 02:04:57;;;;;;;3.75;2.70;;;;;;;;;;10320383;28;20102;-56
2023/12/01 02:09:57;;;;;;;2.95;2.45;;;;;;;;;;10311915;28;20030;-55
2023/12/01 02:14:58;;;;;;;3.00;2.25;;;;;;;;;;10315739;28;20033;-55
2023/12/01 02:19:58;;;;;;;2.78;2.45;;;;;;;;;;10316492;28;20030;-56
2023/12/01 02:24:59;;;;;;;2.70;2.50;;;;;;;;;;10326899;28;20030;-57
2023/12/01 02:29:59;;;;;;;2.65;2.45;;;;;;;;;;10324695;28;20225;-57
2023/12/01 02:35:00;;;;;;;2.47;2.28;;;;;;;;;;10329964;28;20049;-56
2023/12/01 02:40:04;;;;;;;2.53;2.33;;;;;;;;;;10323820;28;20430;-57
2023/12/01 02:45:05;;;;;;;2.58;2.30;;;;;;;;;;10323044;28;20050;-57
2023/12/01 02:50:11;;;;;;;3.03;2.47;;;;;;;;;;10322853;28;20100;-57
2023/12/01 02:55:12;;;;;;;2.88;2.25;;;;;;;;;;10332364;28;20042;-57
2023/12/01 03:00:13;;;;;;;2.80;2.42;;;;;;;;;;10319433;28;20490;-56
2023/12/01 03:05:14;;;;;;;2.63;2.40;;;;;;;;;;10330484;28;20029;-57
2023/12/01 03:10:15;;;;;;;2.67;2.40;;;;;;;;;;10320140;28;20029;-56
2023/12/01 03:15:20;;;;;;;2.50;2.10;;;;;;;;;;10315772;28;20076;-56
2023/12/01 03:20:21;;;;;;;2.38;2.17;;;;;;;;;;10318591;28;21255;-56
2023/12/01 03:25:21;;;;;;;2.85;2.40;;;;;;;;;;10329556;28;20238;-56
2023/12/01 03:30:22;;;;;;;2.30;2.10;;;;;;;;;;10342174;28;20018;-56
2023/12/01 03:35:27;;;;;;;2.70;2.50;;;;;;;;;;10330624;28;20117;-57
2023/12/01 03:40:27;;;;;;;3.30;2.20;;;;;;;;;;10327741;28;20117;-56
2023/12/01 03:45:28;;;;;;;3.47;2.70;;;;;;;;;;10328682;28;20113;-57
2023/12/01 03:50:29;;;;;;;2.55;2.25;;;;;;;;;;10329192;28;20121;-56
2023/12/01 03:55:30;;;;;;;2.17;1.98;;;;;;;;;;10327829;28;20031;-57
2023/12/01 04:00:32;;;;;;;2.55;2.13;;;;;;;;;;10327100;28;20026;-56
2023/12/01 04:05:33;;;;;;;2.60;1.95;;;;;;;;;;10328361;28;20026;-56
2023/12/01 04:10:33;;;;;;;3.00;2.65;;;;;;;;;;10331812;28;20034;-57
2023/12/01 04:15:36;;;;;;;2.47;2.28;;;;;;;;;;10341179;28;20030;-59
2023/12/01 04:20:38;;;;;;;2.65;2.42;;;;;;;;;;10334223;28;20029;-56
2023/12/01 04:25:41;;;;;;;2.28;2.08;;;;;;;;;;10340060;28;20030;-56
2023/12/01 04:30:45;;;;;;;2.72;2.03;;;;;;;;;;10324166;28;20033;-56
2023/12/01 04:35:45;;;;;;;2.17;2.00;;;;;;;;;;10326971;28;20118;-56
2023/12/01 04:40:46;;;;;;;2.30;2.10;;;;;;;;;;10326380;28;20022;-56
2023/12/01 04:45:46;;;;;;;4.70;2.13;;;;;;;;;;10327173;28;20029;-56
2023/12/01 04:50:48;;;;;;;2.00;1.80;;;;;;;;;;10326678;28;20393;-63
2023/12/01 04:55:48;;;;;;;2.92;2.35;;;;;;;;;;10323715;28;20038;-56
2023/12/01 05:00:49;;;;;;;4.35;2.35;;;;;;;;;;10324197;28;20105;-57
2023/12/01 05:05:50;;;;;;;2.22;2.00;;;;;;;;;;10325831;28;20359;-57
2023/12/01 05:10:51;;;;;;;2.25;2.05;;;;;;;;;;10318021;28;20093;-56
2023/12/01 05:15:53;;;;;;;2.22;2.03;;;;;;;;;;10321711;28;20038;-54
2023/12/01 05:20:53;;;;;;;2.10;1.90;;;;;;;;;;10325616;28;20470;-57
2023/12/01 05:25:54;;;;;;;1.70;1.60;;;;;;;;;;10318458;28;20039;-57
2023/12/01 05:30:54;;;;;;;2.05;1.95;;;;;;;;;;10324479;28;20034;-55
2023/12/01 05:35:55;;;;;;;2.67;2.03;;;;;;;;;;10323872;28;20038;-58
2023/12/01 05:40:55;;;;;;;2.05;1.85;;;;;;;;;;10323683;28;20030;-58
2023/12/01 05:45:56;;;;;;;2.33;2.10;;;;;;;;;;10323219;28;20037;-58
2023/12/01 05:50:57;;;;;;;2.22;2.03;;;;;;;;;;10322941;28;20045;-61
2023/12/01 05:55:57;;;;;;;2.10;1.85;;;;;;;;;;10309928;28;20181;-58
2023/12/01 06:00:58;;;;;;;2.20;2.00;;;;;;;;;;10313812;28;20035;-58
2023/12/01 06:05:59;;;;;;;3.08;2.30;;;;;;;;;;10324126;28;20083;-59
2023/12/01 06:10:59;;;;;;;4.45;1.63;;;;;;;;;;10310079;28;20509;-59
2023/12/01 06:16:00;;;;;;;2.53;1.85;;;;;;;;;;10302434;28;20502;-60
2023/12/01 06:21:00;;;;;;;1.92;1.70;;;;;;;;;;10326420;28;20489;-59
2023/12/01 06:26:01;;;;;;;2.28;2.08;;;;;;;;;;10293330;28;20474;-58
2023/12/01 06:31:01;;;;;;;2.15;1.75;;;;;;;;;;10306690;28;20030;-57
2023/12/01 06:36:02;;;;;;;2.42;1.98;;;;;;;;;;10317467;28;20030;-57
2023/12/01 06:41:03;;;;;;;2.30;2.03;;;;;;;;;;10302076;28;20029;-58
2023/12/01 06:46:04;;;;;;;1.90;1.67;;;;;;;;;;10322278;28;20030;-58
2023/12/01 06:51:05;;;;;;;2.85;2.03;;;;;;;;;;10329599;28;20034;-56
2023/12/01 06:56:06;;;;;;;4.35;2.50;;;;;;;;;;10322217;28;20034;-57
2023/12/01 07:01:06;;;;;;;17.92;3.65;;;;;;;;;;10327899;28;20464;-59
2023/12/01 07:06:07;;;;;;;5.22;2.70;;;;;;;;;;10330834;28;20105;-58
2023/12/01 07:11:08;;;;;;;13.05;3.85;;;;;;;;;;10319953;28;20053;-57
2023/12/01 07:16:11;;;;;;;5.30;3.38;;;;;;;;;;10319492;28;20454;-57
2023/12/01 07:21:12;;;;;;;5.82;3.50;;;;;;;;;;10321574;28;20358;-59
2023/12/01 07:26:12;;;;;;;7.80;3.55;;;;;;;;;;10320170;28;20022;-58
2023/12/01 07:31:13;;;;;;;6.10;3.47;;;;;;;;;;10321347;28;20093;-57
2023/12/01 07:36:13;;;;;;;6.30;3.05;;;;;;;;;;10316796;28;20126;-57
2023/12/01 07:41:14;;;;;;;8.93;3.58;;;;;;;;;;10331533;28;20058;-59
2023/12/01 07:46:15;;;;;;;16.00;3.42;;;;;;;;;;10322145;28;20022;-60
2023/12/01 07:51:16;;;;;;;7.15;3.40;;;;;;;;;;10328534;28;20053;-62
2023/12/01 07:56:23;;;;;;;6.45;3.15;;;;;;;;;;10328604;28;20041;-59
2023/12/01 08:01:24;;;;;;;4.22;3.08;;;;;;;;;;10336239;28;20113;-56
2023/12/01 08:06:24;;;;;;;20.10;3.42;;;;;;;;;;10332706;28;20022;-59
2023/12/01 08:11:25;;;;;;;6.20;2.75;;;;;;;;;;10328022;28;20041;-57
2023/12/01 08:16:26;;;;;;;5.32;3.55;;;;;;;;;;10327276;28;20034;-57
2023/12/01 08:21:27;;;;;;;9.63;3.33;;;;;;;;;;10327920;28;20323;-60
2023/12/01 08:26:27;;;;;;;5.10;2.72;;;;;;;;;;10339707;28;20038;-58
2023/12/01 08:31:28;;;;;;;3.88;2.90;;;;;;;;;;10320483;28;20394;-54
2023/12/01 08:36:29;;;;;;;9.00;3.42;;;;;;;;;;10318800;28;20386;-57
2023/12/01 08:41:29;;;;;;;4.80;3.10;;;;;;;;;;10318256;28;20026;-61
2023/12/01 08:46:30;;;;;;;5.90;3.03;;;;;;;;;;10327438;28;20023;-58
2023/12/01 08:51:31;;;;;;;5.18;3.10;;;;;;;;;;10334342;28;20050;-60
2023/12/01 08:56:33;;;;;;;5.53;3.25;;;;;;;;;;10324443;28;20056;-58
2023/12/01 09:01:33;;;;;;;5.82;3.42;;;;;;;;;;10323785;28;20043;-57
2023/12/01 09:06:34;;;;;;;4.60;3.22;;;;;;;;;;10315601;28;20496;-56
2023/12/01 09:11:35;;;;;;;5.10;3.35;;;;;;;;;;10311284;28;20534;-56
2023/12/01 09:16:35;;;;;;;5.05;3.58;;;;;;;;;;10313282;28;20421;-57
2023/12/01 09:21:36;;;;;;;6.00;3.25;;;;;;;;;;10314669;28;20030;-57
2023/12/01 09:26:37;;;;;;;3.58;3.08;;;;;;;;;;10314696;28;20410;-56
2023/12/01 09:31:45;;;;;;;5.32;3.05;;;;;;;;;;10313993;28;20045;-59
2023/12/01 09:36:46;;;;;;;4.57;3.27;;;;;;;;;;10313589;28;20141;-57
2023/12/01 09:41:48;;;;;;;9.48;3.33;;;;;;;;;;10312026;28;20495;-57
2023/12/01 09:46:52;;;;;;;3.20;2.90;;;;;;;;;;10317074;28;20129;-59
2023/12/01 09:51:53;;;;;;;5.25;3.20;;;;;;;;;;10315442;28;20070;-60
2023/12/01 09:56:56;;;;;;;3.95;3.13;;;;;;;;;;10309976;28;20034;-59
2023/12/01 10:01:57;;;;;;;4.20;3.10;;;;;;;;;;10327115;28;20509;-57
2023/12/01 10:06:58;;;;;;;4.47;3.25;;;;;;;;;;10312801;28;20037;-57
2023/12/01 10:12:12;;;;;;;5.75;3.13;;;;;;;;;;10311934;28;20046;-60
2023/12/01 10:17:13;;;;;;;4.85;3.10;;;;;;;;;;10321131;28;20088;-57
2023/12/01 10:22:17;;;;;;;3.58;3.17;;;;;;;;;;10321664;28;20470;-57
2023/12/01 10:27:19;;;;;;;4.25;3.25;;;;;;;;;;10321872;28;20113;-58
2023/12/01 10:32:19;;;;;;;5.90;3.05;;;;;;;;;;10315569;28;20041;-55
2023/12/01 10:37:21;;;;;;;5.18;2.95;;;;;;;;;;10330919;28;20371;-55
2023/12/01 10:42:24;;;;;;;3.58;3.03;;;;;;;;;;10327922;28;20386;-58
2023/12/01 10:47:25;;;;;;;5.40;3.17;;;;;;;;;;10335370;28;20429;-56
2023/12/01 10:52:27;;;;;;;4.15;3.25;;;;;;;;;;10322036;28;20352;-56
2023/12/01 10:57:38;;;;;;;4.20;3.30;;;;;;;;;;10336098;28;20026;-57
2023/12/01 11:02:40;;;;;;;5.03;3.53;;;;;;;;;;10325795;28;20122;-60
2023/12/01 11:08:19;;;;;;;4.25;3.10;;;;;;;;;;10341490;28;20057;-57
2023/12/01 11:13:36;;;;;;;3.65;2.97;;;;;;;;;;10326082;28;20034;-57
2023/12/01 11:18:37;;;;;;;3.95;3.53;;;;;;;;;;10346080;28;20049;-57
2023/12/01 11:23:37;;;;;;;4.75;2.90;;;;;;;;;;10318013;28;20045;-57
2023/12/01 11:33:57;;;;;;;3.33;3.00;;;;;;;;;;10320932;28;20482;-58
2023/12/01 11:44:37;;;;;;;3.40;3.10;;;;;;;;;;10328689;28;20058;-56
2023/12/01 11:54:43;;;;;;;3.17;2.80;;;;;;;;;;10485808;28;20092;-65
2023/12/01 11:59:44;;;;;;;4.68;3.22;;;;;;;;;;10490097;28;20113;-65
2023/12/01 12:04:49;;;;;;;3.15;2.83;;;;;;;;;;10492223;28;20048;-65
2023/12/01 12:09:49;;;;;;;4.10;3.03;;;;;;;;;;10491884;28;20507;-65
2023/12/01 12:14:52;;;;;;;5.03;3.20;;;;;;;;;;10488858;28;20020;-65
2023/12/01 12:19:53;;;;;;;6.30;3.00;;;;;;;;;;10490605;28;20376;-65
2023/12/01 12:24:53;;;;;;;2.60;2.40;;;;;;;;;;10485060;28;20021;-65
2023/12/01 12:29:54;;;;;;;2.92;2.72;;;;;;;;;;10486757;28;20024;-65
2023/12/01 12:34:55;;;;;;;2.90;2.65;;;;;;;;;;10477456;28;20078;-65
2023/12/01 12:39:56;;;;;;;3.70;2.80;;;;;;;;;;10475138;28;20024;-65
2023/12/01 12:44:56;;;;;;;3.63;3.05;;;;;;;;;;10490194;28;20020;-66
2023/12/01 12:49:57;;;;;;;5.93;3.40;;;;;;;;;;10492623;28;20032;-65
2023/12/01 12:54:58;;;;;;;4.13;3.05;;;;;;;;;;10485023;28;20074;-65
2023/12/01 12:59:58;;;;;;;8.32;2.95;;;;;;;;;;10481397;28;20044;-65
2023/12/01 13:04:59;;;;;;;3.38;2.80;;;;;;;;;;10481385;28;20085;-65
2023/12/01 13:09:59;;;;;;;4.10;2.90;;;;;;;;;;10482639;28;20024;-65
2023/12/01 13:15:00;;;;;;;4.47;2.92;;;;;;;;;;10480448;28;20025;-65
2023/12/01 13:20:04;;;;;;;3.88;2.92;;;;;;;;;;10487783;28;20476;-66
2023/12/01 13:25:05;;;;;;;4.75;2.70;;;;;;;;;;10480373;28;20036;-65
2023/12/01 13:30:07;;;;;;;4.03;3.08;;;;;;;;;;10459700;28;20032;-65
2023/12/01 13:35:07;;;;;;;3.40;2.70;;;;;;;;;;10468306;28;20036;-65
2023/12/01 13:40:09;;;;;;;2.90;2.70;;;;;;;;;;10480950;28;20404;-65
2023/12/01 13:45:10;;;;;;;3.78;2.90;;;;;;;;;;10483110;28;20048;-65
2023/12/01 13:50:10;;;;;;;6.13;2.70;;;;;;;;;;10486304;28;20052;-65
2023/12/01 13:55:11;;;;;;;3.28;2.85;;;;;;;;;;10470815;28;20036;-66
2023/12/01 14:00:15;;;;;;;2.60;2.40;;;;;;;;;;10472691;28;20085;-65
2023/12/01 14:05:19;;;;;;;3.00;2.70;;;;;;;;;;10477500;28;20067;-66
2023/12/01 14:10:20;;;;;;;3.53;2.70;;;;;;;;;;10455538;28;20400;-65
2023/12/01 14:15:21;;;;;;;3.70;2.35;;;;;;;;;;10457679;28;20063;-65
2023/12/01 14:20:21;;;;;;;4.95;2.70;;;;;;;;;;10457937;28;20074;-66
2023/12/01 14:25:22;;;;;;;7.82;2.75;;;;;;;;;;10454803;28;20029;-66
2023/12/01 14:30:25;;;;;;;3.20;2.90;;;;;;;;;;10459379;28;20040;-66
2023/12/01 14:35:25;;;;;;;4.18;2.90;;;;;;;;;;10469755;28;20025;-65
2023/12/01 14:40:26;;;;;;;4.93;3.10;;;;;;;;;;10453204;28;20051;-66
2023/12/01 14:45:26;;;;;;;4.90;3.10;;;;;;;;;;10459186;28;20375;-65
2023/12/01 14:50:27;;;;;;;2.90;2.60;;;;;;;;;;10461383;28;20049;-65
2023/12/01 14:55:28;;;;;;;2.83;2.58;;;;;;;;;;10467287;28;20078;-65
2023/12/01 15:00:28;;;;;;;6.47;3.03;;;;;;;;;;10462161;28;20036;-65
2023/12/01 15:05:29;;;;;;;4.45;2.67;;;;;;;;;;10460435;28;20040;-65
2023/12/01 15:10:30;;;;;;;5.78;3.05;;;;;;;;;;10459180;28;20029;-65
2023/12/01 15:15:31;;;;;;;3.72;3.00;;;;;;;;;;10477119;28;20099;-66
2023/12/01 15:20:31;;;;;;;4.90;3.17;;;;;;;;;;10470470;28;20033;-65
2023/12/01 15:25:32;;;;;;;14.95;3.20;;;;;;;;;;10470119;28;20047;-65
2023/12/01 15:30:33;;;;;;;6.38;3.20;;;;;;;;;;10477007;28;20032;-66
2023/12/01 15:35:33;;;;;;;7.75;3.28;;;;;;;;;;10488610;28;20047;-65
2023/12/01 15:40:34;;;;;;;5.45;3.10;;;;;;;;;;10495308;28;20025;-65
2023/12/01 15:45:35;;;;;;;4.35;3.08;;;;;;;;;;10494083;28;20032;-65
2023/12/01 15:50:38;;;;;;;4.43;2.75;;;;;;;;;;10489794;28;20371;-66
2023/12/01 15:55:38;;;;;;;8.48;2.78;;;;;;;;;;10494921;28;20471;-65
2023/12/01 16:00:39;;;;;;;3.28;2.70;;;;;;;;;;10493313;28;20036;-65
2023/12/01 16:05:40;;;;;;;3.35;2.50;;;;;;;;;;10493989;28;20024;-66
2023/12/01 16:10:40;;;;;;;4.68;2.92;;;;;;;;;;10493225;28;20111;-66
2023/12/01 16:15:41;;;;;;;6.63;2.90;;;;;;;;;;10492982;28;20033;-66
2023/12/01 16:20:43;;;;;;;2.58;2.38;;;;;;;;;;10492859;28;20475;-65
2023/12/01 16:25:45;;;;;;;4.35;2.95;;;;;;;;;;10493461;28;20035;-66
2023/12/01 16:30:48;;;;;;;3.15;2.80;;;;;;;;;;10492596;28;20044;-65
2023/12/01 16:35:48;;;;;;;3.03;2.30;;;;;;;;;;10492383;28;20039;-66
2023/12/01 16:40:49;;;;;;;3.50;2.83;;;;;;;;;;10491842;28;20024;-65
2023/12/01 16:45:50;;;;;;;3.83;2.80;;;;;;;;;;10491745;28;20040;-65
2023/12/01 16:50:50;;;;;;;4.07;3.10;;;;;;;;;;10491223;28;20048;-66
2023/12/01 16:55:51;;;;;;;5.45;2.92;;;;;;;;;;10490770;28;20032;-65
2023/12/01 17:00:51;;;;;;;4.22;2.90;;;;;;;;;;10490395;28;20134;-65
2023/12/01 17:05:52;;;;;;;4.60;2.80;;;;;;;;;;10491743;28;20032;-65
2023/12/01 17:10:53;;;;;;;3.92;2.83;;;;;;;;;;10490846;28;20025;-65
2023/12/01 17:15:53;;;;;;;3.63;2.50;;;;;;;;;;10490192;28;20039;-65
2023/12/01 17:20:54;;;;;;;3.45;2.65;;;;;;;;;;10489949;28;20033;-65
2023/12/01 17:25:54;;;;;;;3.97;2.97;;;;;;;;;;10489283;28;20051;-65
2023/12/01 17:30:55;;;;;;;3.83;2.63;;;;;;;;;;10488842;28;20033;-66
2023/12/01 17:35:55;;;;;;;6.07;2.65;;;;;;;;;;10494944;28;20024;-65
2023/12/01 17:40:56;;;;;;;5.50;3.38;;;;;;;;;;10499699;28;20089;-65
2023/12/01 17:45:57;;;;;;;6.57;3.47;;;;;;;;;;10483927;28;20031;-65
2023/12/01 17:50:58;;;;;;;5.85;3.42;;;;;;;;;;10488737;28;20045;-65
2023/12/01 17:55:58;;;;;;;6.93;4.20;;;;;;;;;;10489018;28;20479;-66
2023/12/01 18:01:00;;;;;;;10.38;4.20;;;;;;;;;;10473170;28;20040;-67
2023/12/01 18:06:01;;;;;;;25.95;5.13;;;;;;;;;;10460311;28;20025;-66
2023/12/01 18:11:01;;;;;;;18.38;5.63;;;;;;;;;;10473415;28;20044;-66
2023/12/01 18:16:02;;;;;;;9.43;4.43;;;;;;;;;;10477096;28;20032;-66
2023/12/01 18:21:03;;;;;;;14.40;4.85;;;;;;;;;;10456049;28;20453;-66
2023/12/01 18:26:04;;;;;;;14.45;5.93;;;;;;;;;;10459068;28;20102;-66
2023/12/01 18:31:06;;;;;;;9.73;4.43;;;;;;;;;;10457482;28;20112;-66
2023/12/01 18:36:07;;;;;;;8.05;4.05;;;;;;;;;;10452411;28;20384;-66
2023/12/01 18:41:08;;;;;;;9.98;4.55;;;;;;;;;;10457527;28;20025;-67
2023/12/01 18:46:08;;;;;;;13.68;4.85;;;;;;;;;;10457958;28;20029;-66
2023/12/01 18:51:09;;;;;;;8.38;3.92;;;;;;;;;;10463373;28;20048;-65
2023/12/01 18:56:10;;;;;;;12.05;4.07;;;;;;;;;;10464958;28;20077;-66
2023/12/01 19:01:10;;;;;;;7.50;4.38;;;;;;;;;;10481706;28;20098;-67
2023/12/01 19:06:11;;;;;;;8.30;3.70;;;;;;;;;;10462587;28;20040;-66
2023/12/01 19:11:11;;;;;;;8.48;4.25;;;;;;;;;;10487347;28;20395;-66
2023/12/01 19:16:12;;;;;;;7.35;4.03;;;;;;;;;;10468996;28;20422;-67
2023/12/01 19:21:13;;;;;;;11.48;4.70;;;;;;;;;;10487485;28;20513;-67
2023/12/01 19:26:13;;;;;;;9.35;4.68;;;;;;;;;;10486929;28;20029;-66
2023/12/01 19:31:14;;;;;;;6.72;3.72;;;;;;;;;;10487464;28;20070;-66
2023/12/01 19:36:15;;;;;;;9.50;4.10;;;;;;;;;;10494284;28;20036;-66
2023/12/01 19:41:15;;;;;;;11.02;4.47;;;;;;;;;;10493198;28;20016;-66
2023/12/01 19:46:16;;;;;;;4.88;3.63;;;;;;;;;;10493805;28;20047;-66
2023/12/01 19:51:17;;;;;;;4.32;3.25;;;;;;;;;;10494274;28;20044;-67
2023/12/01 19:56:18;;;;;;;11.57;3.95;;;;;;;;;;10492444;28;20185;-66
2023/12/01 20:01:18;;;;;;;5.40;3.47;;;;;;;;;;10483989;28;20036;-67
2023/12/01 20:06:19;;;;;;;10.52;4.03;;;;;;;;;;10493245;28;20356;-68
2023/12/01 20:11:20;;;;;;;13.13;4.30;;;;;;;;;;10492344;28;20568;-68
2023/12/01 20:16:21;;;;;;;8.48;4.18;;;;;;;;;;10493588;28;20039;-67
2023/12/01 20:21:21;;;;;;;25.98;5.05;;;;;;;;;;10489656;28;20044;-66
2023/12/01 20:26:22;;;;;;;14.85;5.13;;;;;;;;;;10464143;28;20479;-65
2023/12/01 20:31:23;;;;;;;15.27;4.93;;;;;;;;;;10479652;28;20078;-66
2023/12/01 20:36:23;;;;;;;11.93;4.68;;;;;;;;;;10473860;28;20028;-66
2023/12/01 20:41:26;;;;;;;8.05;4.70;;;;;;;;;;10491095;28;20025;-67
2023/12/01 20:46:27;;;;;;;16.58;4.65;;;;;;;;;;10465633;28;20044;-67
2023/12/01 20:51:28;;;;;;;14.70;4.28;;;;;;;;;;10491068;28;20068;-67
2023/12/01 20:56:28;;;;;;;7.32;4.40;;;;;;;;;;10491719;28;20040;-67
2023/12/01 21:01:29;;;;;;;10.23;4.32;;;;;;;;;;10490340;28;20028;-67
2023/12/01 21:06:30;;;;;;;8.52;4.75;;;;;;;;;;10489743;28;20264;-66
2023/12/01 21:11:30;;;;;;;7.07;4.47;;;;;;;;;;10490112;28;20666;-67
2023/12/01 21:16:31;;;;;;;7.18;4.43;;;;;;;;;;10489657;28;20133;-67
2023/12/01 21:21:32;;;;;;;6.22;3.88;;;;;;;;;;10487504;28;20033;-65
2023/12/01 21:26:33;;;;;;;14.27;4.50;;;;;;;;;;10488630;28;20129;-67
2023/12/01 21:31:33;;;;;;;6.70;4.60;;;;;;;;;;10487816;28;20028;-67
2023/12/01 21:36:34;;;;;;;7.03;4.72;;;;;;;;;;10489886;28;20074;-66
2023/12/01 21:41:34;;;;;;;9.10;4.88;;;;;;;;;;10488918;28;20028;-66
2023/12/01 21:46:35;;;;;;;6.82;4.35;;;;;;;;;;10488124;28;20061;-67
2023/12/01 21:51:36;;;;;;;6.05;4.13;;;;;;;;;;10475299;28;20058;-67
2023/12/01 21:56:36;;;;;;;7.00;4.40;;;;;;;;;;10478768;28;20032;-67
2023/12/01 22:01:37;;;;;;;8.52;4.57;;;;;;;;;;10488204;28;20067;-67
2023/12/01 22:06:37;;;;;;;5.22;3.83;;;;;;;;;;10463603;28;20028;-66
2023/12/01 22:11:39;;;;;;;8.07;4.88;;;;;;;;;;10488407;28;20028;-65
2023/12/01 22:16:40;;;;;;;6.63;4.30;;;;;;;;;;10475560;28;20045;-66
2023/12/01 22:21:41;;;;;;;11.30;4.10;;;;;;;;;;10487058;28;20510;-66
2023/12/01 22:26:41;;;;;;;9.57;5.43;;;;;;;;;;10488544;28;20091;-66
2023/12/01 22:31:42;;;;;;;7.03;4.15;;;;;;;;;;10488369;28;20028;-66
2023/12/01 22:36:42;;;;;;;6.68;4.35;;;;;;;;;;10488247;28;20040;-66
2023/12/01 22:41:44;;;;;;;5.40;3.63;;;;;;;;;;10475108;28;20090;-65
2023/12/01 22:46:48;;;;;;;7.45;4.25;;;;;;;;;;10488348;28;20508;-67
2023/12/01 22:51:49;;;;;;;8.55;4.40;;;;;;;;;;10486027;28;20037;-67
2023/12/01 22:56:50;;;;;;;5.65;4.32;;;;;;;;;;10487328;28;20025;-67
2023/12/01 23:01:51;;;;;;;9.38;4.57;;;;;;;;;;10486593;28;20119;-67
2023/12/01 23:06:51;;;;;;;9.00;4.40;;;;;;;;;;10476107;28;20373;-65
2023/12/01 23:11:52;;;;;;;8.50;4.57;;;;;;;;;;10495123;28;20518;-66
2023/12/01 23:16:53;;;;;;;5.32;4.25;;;;;;;;;;10494930;28;20599;-66
2023/12/01 23:21:53;;;;;;;9.27;4.45;;;;;;;;;;10494698;28;20264;-66
2023/12/01 23:26:54;;;;;;;6.43;4.30;;;;;;;;;;10495986;28;20097;-67
2023/12/01 23:31:55;;;;;;;9.73;4.20;;;;;;;;;;10495381;28;20030;-66
2023/12/01 23:36:55;;;;;;;6.35;4.35;;;;;;;;;;10495535;28;20532;-66
2023/12/01 23:41:56;;;;;;;6.05;4.22;;;;;;;;;;10495137;28;20380;-65
2023/12/01 23:46:56;;;;;;;5.85;4.15;;;;;;;;;;10495194;28;20039;-67
2023/12/01 23:51:57;;;;;;;6.65;4.43;;;;;;;;;;10493808;28;20086;-66
2023/12/01 23:56:58;;;;;;;6.15;4.60;;;;;;;;;;10493822;28;20044;-66
